sensor_id;sensor_type;location;lat;lon;timestamp;pressure;altitude;pressure_sealevel;temperature;humidity
61682;BME280;47577;43.610;25.010;2023-01-30T00:00:59;100915.31;;;0.91;79.86
61682;BME280;47577;43.610;25.010;2023-01-30T00:03:25;100939.09;;;1.05;78.70
61682;BME280;47577;43.610;25.010;2023-01-30T00:05:51;100933.91;;;1.12;80.27
61682;BME280;47577;43.610;25.010;2023-01-30T00:08:17;100934.88;;;1.20;78.87
61682;BME280;47577;43.610;25.010;2023-01-30T00:10:44;100925.09;;;1.05;78.44
61682;BME280;47577;43.610;25.010;2023-01-30T00:13:10;100936.56;;;1.15;79.12
61682;BME280;47577;43.610;25.010;2023-01-30T00:15:36;100918.25;;;1.18;79.10
61682;BME280;47577;43.610;25.010;2023-01-30T00:18:01;100926.84;;;1.04;77.83
61682;BME280;47577;43.610;25.010;2023-01-30T00:23:03;100925.06;;;1.03;78.28
61682;BME280;47577;43.610;25.010;2023-01-30T00:25:29;100921.38;;;0.90;79.24
61682;BME280;47577;43.610;25.010;2023-01-30T00:27:58;100914.41;;;0.88;79.49
61682;BME280;47577;43.610;25.010;2023-01-30T00:30:24;100923.28;;;1.01;78.24
61682;BME280;47577;43.610;25.010;2023-01-30T00:32:54;100915.41;;;0.98;79.08
61682;BME280;47577;43.610;25.010;2023-01-30T00:35:21;100923.78;;;0.73;78.64
61682;BME280;47577;43.610;25.010;2023-01-30T00:37:56;100908.25;;;0.87;78.54
61682;BME280;47577;43.610;25.010;2023-01-30T00:40:24;100911.59;;;0.77;78.45
61682;BME280;47577;43.610;25.010;2023-01-30T00:42:50;100903.91;;;0.88;78.82
61682;BME280;47577;43.610;25.010;2023-01-30T00:45:34;100909.16;;;0.88;78.15
61682;BME280;47577;43.610;25.010;2023-01-30T00:48:21;100906.44;;;0.82;78.14
61682;BME280;47577;43.610;25.010;2023-01-30T00:50:46;100905.66;;;0.86;78.13
61682;BME280;47577;43.610;25.010;2023-01-30T00:53:13;100910.19;;;0.99;79.04
61682;BME280;47577;43.610;25.010;2023-01-30T00:55:40;100905.66;;;0.86;77.55
61682;BME280;47577;43.610;25.010;2023-01-30T00:58:08;100900.41;;;0.87;78.09
61682;BME280;47577;43.610;25.010;2023-01-30T01:00:34;100904.75;;;0.87;76.99
61682;BME280;47577;43.610;25.010;2023-01-30T01:03:00;100911.47;;;0.68;77.45
61682;BME280;47577;43.610;25.010;2023-01-30T01:05:26;100895.88;;;0.76;78.19
61682;BME280;47577;43.610;25.010;2023-01-30T01:07:53;100904.81;;;0.90;76.52
61682;BME280;47577;43.610;25.010;2023-01-30T01:10:19;100904.03;;;0.96;77.28
61682;BME280;47577;43.610;25.010;2023-01-30T01:12:45;100900.16;;;0.69;77.65
61682;BME280;47577;43.610;25.010;2023-01-30T01:15:12;100885.38;;;0.72;77.58
61682;BME280;47577;43.610;25.010;2023-01-30T01:17:39;100898.47;;;0.74;77.22
61682;BME280;47577;43.610;25.010;2023-01-30T01:20:06;100901.97;;;0.73;77.76
61682;BME280;47577;43.610;25.010;2023-01-30T01:22:32;100901.13;;;0.76;78.13
61682;BME280;47577;43.610;25.010;2023-01-30T01:24:58;100897.66;;;0.77;77.10
61682;BME280;47577;43.610;25.010;2023-01-30T01:27:23;100900.38;;;0.83;76.93
61682;BME280;47577;43.610;25.010;2023-01-30T01:29:49;100900.38;;;0.83;76.61
61682;BME280;47577;43.610;25.010;2023-01-30T01:32:15;100891.38;;;0.65;77.36
61682;BME280;47577;43.610;25.010;2023-01-30T01:34:41;100887.09;;;0.70;77.05
61682;BME280;47577;43.610;25.010;2023-01-30T01:37:07;100889.59;;;0.64;77.01
61682;BME280;47577;43.610;25.010;2023-01-30T01:39:33;100876.38;;;0.53;77.40
61682;BME280;47577;43.610;25.010;2023-01-30T01:42:17;100886.91;;;0.60;76.64
61682;BME280;47577;43.610;25.010;2023-01-30T01:47:18;100880.50;;;0.38;78.27
61682;BME280;47577;43.610;25.010;2023-01-30T01:49:43;100873.00;;;0.62;77.62
61682;BME280;47577;43.610;25.010;2023-01-30T01:52:12;100875.72;;;0.68;77.50
61682;BME280;47577;43.610;25.010;2023-01-30T01:54:50;100881.81;;;0.69;76.66
61682;BME280;47577;43.610;25.010;2023-01-30T01:57:30;100874.75;;;0.62;76.57
61682;BME280;47577;43.610;25.010;2023-01-30T02:00:17;100869.44;;;0.57;77.86
61682;BME280;47577;43.610;25.010;2023-01-30T02:02:53;100876.59;;;0.69;76.96
61682;BME280;47577;43.610;25.010;2023-01-30T02:05:23;100868.72;;;0.67;77.15
61682;BME280;47577;43.610;25.010;2023-01-30T02:08:09;100855.38;;;0.49;77.39
61682;BME280;47577;43.610;25.010;2023-01-30T02:10:41;100874.81;;;0.68;76.54
61682;BME280;47577;43.610;25.010;2023-01-30T02:13:11;100875.63;;;0.62;77.26
61682;BME280;47577;43.610;25.010;2023-01-30T02:15:36;100864.28;;;0.60;77.41
61682;BME280;47577;43.610;25.010;2023-01-30T02:18:03;100874.72;;;0.60;76.37
61682;BME280;47577;43.610;25.010;2023-01-30T02:20:42;100875.38;;;0.47;77.71
61682;BME280;47577;43.610;25.010;2023-01-30T02:23:20;100874.72;;;0.59;77.10
61682;BME280;47577;43.610;25.010;2023-01-30T02:29:04;100876.41;;;0.57;76.83
61682;BME280;47577;43.610;25.010;2023-01-30T02:36:51;100876.63;;;0.70;77.24
61682;BME280;47577;43.610;25.010;2023-01-30T02:44:43;100865.22;;;0.67;76.81
61682;BME280;47577;43.610;25.010;2023-01-30T02:47:41;100864.28;;;0.60;77.42
61682;BME280;47577;43.610;25.010;2023-01-30T02:50:16;100864.97;;;0.50;77.54
61682;BME280;47577;43.610;25.010;2023-01-30T02:52:45;100861.66;;;0.60;77.82
61682;BME280;47577;43.610;25.010;2023-01-30T02:55:32;100851.16;;;0.59;78.21
61682;BME280;47577;43.610;25.010;2023-01-30T02:57:58;100864.28;;;0.60;77.76
61682;BME280;47577;43.610;25.010;2023-01-30T03:01:01;100857.34;;;0.65;78.53
61682;BME280;47577;43.610;25.010;2023-01-30T03:03:50;100859.03;;;0.60;78.39
61682;BME280;47577;43.610;25.010;2023-01-30T03:11:59;100851.16;;;0.59;78.73
61682;BME280;47577;43.610;25.010;2023-01-30T03:14:29;100843.38;;;0.66;78.23
61682;BME280;47577;43.610;25.010;2023-01-30T03:42:48;100779.75;;;0.06;79.67
61682;BME280;47577;43.610;25.010;2023-01-30T03:45:14;100781.72;;;0.21;78.60
61682;BME280;47577;43.610;25.010;2023-01-30T03:47:40;100791.38;;;0.25;78.28
61682;BME280;47577;43.610;25.010;2023-01-30T03:50:06;100779.97;;;0.22;78.31
61682;BME280;47577;43.610;25.010;2023-01-30T03:52:35;100775.75;;;0.31;79.57
61682;BME280;47577;43.610;25.010;2023-01-30T03:55:01;100779.44;;;0.46;78.81
61682;BME280;47577;43.610;25.010;2023-01-30T03:57:27;100814.59;;;0.63;78.41
61682;BME280;47577;43.610;25.010;2023-01-30T03:59:53;100821.56;;;0.66;79.03
61682;BME280;47577;43.610;25.010;2023-01-30T04:02:18;100823.38;;;0.68;77.89
61682;BME280;47577;43.610;25.010;2023-01-30T04:04:48;100808.44;;;0.63;78.61
61682;BME280;47577;43.610;25.010;2023-01-30T04:07:14;100816.25;;;0.60;78.77
61682;BME280;47577;43.610;25.010;2023-01-30T04:09:39;100823.06;;;0.48;79.10
61682;BME280;47577;43.610;25.010;2023-01-30T04:12:05;100820.56;;;0.56;79.00
61682;BME280;47577;43.610;25.010;2023-01-30T04:14:31;100818.91;;;0.61;78.40
61682;BME280;47577;43.610;25.010;2023-01-30T04:16:57;100810.19;;;0.62;79.01
61682;BME280;47577;43.610;25.010;2023-01-30T04:19:23;100811.22;;;0.73;79.19
61682;BME280;47577;43.610;25.010;2023-01-30T04:21:49;100804.78;;;0.50;78.84
61682;BME280;47577;43.610;25.010;2023-01-30T04:24:14;100820.22;;;0.30;79.94
61682;BME280;47577;43.610;25.010;2023-01-30T04:26:40;100804.03;;;0.57;79.04
61682;BME280;47577;43.610;25.010;2023-01-30T04:29:06;100806.72;;;0.65;78.39
61682;BME280;47577;43.610;25.010;2023-01-30T04:31:31;100819.00;;;0.69;78.89
61682;BME280;47577;43.610;25.010;2023-01-30T04:33:58;100819.19;;;0.81;79.16
61682;BME280;47577;43.610;25.010;2023-01-30T04:36:24;100824.47;;;0.89;77.42
61682;BME280;47577;43.610;25.010;2023-01-30T04:38:49;100819.25;;;0.89;77.77
61682;BME280;47577;43.610;25.010;2023-01-30T04:41:15;100821.84;;;0.84;79.05
61682;BME280;47577;43.610;25.010;2023-01-30T04:43:41;100827.78;;;0.74;78.04
61682;BME280;47577;43.610;25.010;2023-01-30T04:46:06;100817.53;;;0.89;77.99
61682;BME280;47577;43.610;25.010;2023-01-30T04:48:32;100813.66;;;0.61;78.78
61682;BME280;47577;43.610;25.010;2023-01-30T04:50:57;100815.53;;;0.70;79.63
61682;BME280;47577;43.610;25.010;2023-01-30T04:53:24;100813.56;;;0.55;78.86
61682;BME280;47577;43.610;25.010;2023-01-30T04:55:49;100811.88;;;0.57;79.15
61682;BME280;47577;43.610;25.010;2023-01-30T04:58:16;100827.31;;;0.39;80.59
61682;BME280;47577;43.610;25.010;2023-01-30T05:00:44;100821.53;;;0.63;79.14
61682;BME280;47577;43.610;25.010;2023-01-30T05:03:09;100821.28;;;0.43;79.96
61682;BME280;47577;43.610;25.010;2023-01-30T05:05:35;100820.38;;;0.44;80.47
61682;BME280;47577;43.610;25.010;2023-01-30T05:08:01;100823.16;;;0.54;80.03
61682;BME280;47577;43.610;25.010;2023-01-30T05:10:27;100823.03;;;0.45;80.19
61682;BME280;47577;43.610;25.010;2023-01-30T05:12:53;100799.31;;;0.33;81.09
61682;BME280;47577;43.610;25.010;2023-01-30T05:15:19;100799.34;;;0.34;80.78
61682;BME280;47577;43.610;25.010;2023-01-30T05:22:54;100813.41;;;0.43;81.53
61682;BME280;47577;43.610;25.010;2023-01-30T05:25:20;100804.69;;;0.42;81.16
61682;BME280;47577;43.610;25.010;2023-01-30T05:27:46;100811.59;;;0.37;82.30
61682;BME280;47577;43.610;25.010;2023-01-30T05:30:12;100802.78;;;0.32;82.29
61682;BME280;47577;43.610;25.010;2023-01-30T05:32:38;100796.00;;;0.45;81.60
61682;BME280;47577;43.610;25.010;2023-01-30T05:35:04;100815.91;;;0.33;80.97
61682;BME280;47577;43.610;25.010;2023-01-30T05:37:29;100816.88;;;0.42;81.43
61682;BME280;47577;43.610;25.010;2023-01-30T05:42:30;100802.88;;;0.38;82.79
61682;BME280;47577;43.610;25.010;2023-01-30T05:44:56;100812.50;;;0.39;82.53
61682;BME280;47577;43.610;25.010;2023-01-30T05:47:21;100816.00;;;0.40;82.06
61682;BME280;47577;43.610;25.010;2023-01-30T05:49:47;100822.69;;;0.22;83.08
61682;BME280;47577;43.610;25.010;2023-01-30T05:52:12;100827.50;;;0.51;81.77
61682;BME280;47577;43.610;25.010;2023-01-30T05:54:38;100825.84;;;0.59;82.86
61682;BME280;47577;43.610;25.010;2023-01-30T05:57:03;100831.84;;;0.49;81.35
61682;BME280;47577;43.610;25.010;2023-01-30T05:59:29;100824.97;;;0.57;80.82
61682;BME280;47577;43.610;25.010;2023-01-30T06:01:55;100826.50;;;0.43;81.55
61682;BME280;47577;43.610;25.010;2023-01-30T06:04:20;100826.38;;;0.35;82.34
61682;BME280;47577;43.610;25.010;2023-01-30T06:06:48;100823.78;;;0.35;81.96
61682;BME280;47577;43.610;25.010;2023-01-30T06:09:14;100829.31;;;0.58;81.35
61682;BME280;47577;43.610;25.010;2023-01-30T06:11:41;100824.78;;;0.45;81.01
61682;BME280;47577;43.610;25.010;2023-01-30T06:14:06;100829.25;;;0.52;81.48
61682;BME280;47577;43.610;25.010;2023-01-30T06:16:32;100828.31;;;0.48;81.62
61682;BME280;47577;43.610;25.010;2023-01-30T06:26:43;100829.25;;;0.50;81.36
61682;BME280;47577;43.610;25.010;2023-01-30T06:55:01;100846.53;;;0.39;82.58
61682;BME280;47577;43.610;25.010;2023-01-30T06:57:26;100827.03;;;0.20;82.31
61682;BME280;47577;43.610;25.010;2023-01-30T06:59:52;100846.34;;;0.28;83.25
61682;BME280;47577;43.610;25.010;2023-01-30T07:38:30;100831.91;;;0.57;82.61
61682;BME280;47577;43.610;25.010;2023-01-30T07:40:58;100837.94;;;0.49;82.18
61682;BME280;47577;43.610;25.010;2023-01-30T07:43:24;100828.34;;;0.50;82.61
61682;BME280;47577;43.610;25.010;2023-01-30T08:29:47;100821.06;;;0.93;81.69
61682;BME280;47577;43.610;25.010;2023-01-30T08:47:44;100833.25;;;0.91;82.33
61682;BME280;47577;43.610;25.010;2023-01-30T08:50:10;100817.72;;;1.06;81.59
61682;BME280;47577;43.610;25.010;2023-01-30T08:52:35;100828.69;;;0.76;82.48
61682;BME280;47577;43.610;25.010;2023-01-30T08:55:01;100826.34;;;0.96;81.25
61682;BME280;47577;43.610;25.010;2023-01-30T08:57:27;100819.88;;;0.69;82.03
61682;BME280;47577;43.610;25.010;2023-01-30T08:59:54;100814.28;;;1.11;81.81
61682;BME280;47577;43.610;25.010;2023-01-30T09:02:19;100802.00;;;1.06;81.65
61682;BME280;47577;43.610;25.010;2023-01-30T09:04:45;100805.63;;;1.18;80.67
61682;BME280;47577;43.610;25.010;2023-01-30T09:07:10;100793.59;;;1.35;80.42
61682;BME280;47577;43.610;25.010;2023-01-30T09:09:36;100807.53;;;1.34;79.74
61682;BME280;47577;43.610;25.010;2023-01-30T09:12:02;100803.06;;;1.24;81.71
61682;BME280;47577;43.610;25.010;2023-01-30T09:14:27;100796.22;;;1.35;80.63
61682;BME280;47577;43.610;25.010;2023-01-30T09:16:53;100785.75;;;1.37;80.95
61682;BME280;47577;43.610;25.010;2023-01-30T09:19:22;100792.09;;;1.60;80.24
61682;BME280;47577;43.610;25.010;2023-01-30T09:21:49;100788.59;;;1.61;80.66
61682;BME280;47577;43.610;25.010;2023-01-30T09:24:15;100769.25;;;1.49;79.85
61682;BME280;47577;43.610;25.010;2023-01-30T09:26:40;100772.09;;;1.72;78.55
61682;BME280;47577;43.610;25.010;2023-01-30T09:29:13;100778.84;;;1.45;78.44
61682;BME280;47577;43.610;25.010;2023-01-30T09:31:39;100770.91;;;1.40;79.34
61682;BME280;47577;43.610;25.010;2023-01-30T09:34:06;100766.56;;;1.38;79.26
61682;BME280;47577;43.610;25.010;2023-01-30T09:36:32;100780.56;;;1.43;79.31
61682;BME280;47577;43.610;25.010;2023-01-30T09:38:58;100764.13;;;1.61;80.00
61682;BME280;47577;43.610;25.010;2023-01-30T09:41:47;100757.16;;;1.64;77.97
61682;BME280;47577;43.610;25.010;2023-01-30T09:53:05;100745.78;;;1.62;77.91
61682;BME280;47577;43.610;25.010;2023-01-30T09:55:38;100749.31;;;1.64;77.28
61682;BME280;47577;43.610;25.010;2023-01-30T09:58:15;100738.06;;;1.81;79.13
61682;BME280;47577;43.610;25.010;2023-01-30T10:00:42;100731.09;;;1.80;77.44
61682;BME280;47577;43.610;25.010;2023-01-30T10:03:17;100738.16;;;1.93;77.71
61682;BME280;47577;43.610;25.010;2023-01-30T10:05:50;100733.84;;;2.03;77.82
61682;BME280;47577;43.610;25.010;2023-01-30T10:11:51;100716.31;;;1.97;76.71
61682;BME280;47577;43.610;25.010;2023-01-30T11:08:56;100607.03;;;1.93;74.99
61682;BME280;47577;43.610;25.010;2023-01-30T11:19:07;100571.16;;;1.92;76.84
61682;BME280;47577;43.610;25.010;2023-01-30T11:21:33;100577.31;;;2.00;74.38
61682;BME280;47577;43.610;25.010;2023-01-30T11:37:36;100539.69;;;1.92;74.46
61682;BME280;47577;43.610;25.010;2023-01-30T11:40:17;100472.16;;;1.34;73.73
61682;BME280;47577;43.610;25.010;2023-01-30T12:00:57;100486.41;;;1.93;75.20
61682;BME280;47577;43.610;25.010;2023-01-30T12:03:23;100491.63;;;1.89;74.92
61682;BME280;47577;43.610;25.010;2023-01-30T12:05:51;100489.88;;;1.91;75.65
61682;BME280;47577;43.610;25.010;2023-01-30T12:08:25;100482.91;;;2.07;75.78
61682;BME280;47577;43.610;25.010;2023-01-30T12:10:56;100482.94;;;2.11;74.67
61682;BME280;47577;43.610;25.010;2023-01-30T12:32:06;100456.69;;;2.02;72.32
61682;BME280;47577;43.610;25.010;2023-01-30T12:40:41;100445.34;;;2.22;71.80
61682;BME280;47577;43.610;25.010;2023-01-30T13:18:46;100398.94;;;2.90;63.75
61682;BME280;47577;43.610;25.010;2023-01-30T13:21:20;100395.41;;;3.05;66.71
61682;BME280;47577;43.610;25.010;2023-01-30T13:26:32;100399.88;;;2.61;64.81
61682;BME280;47577;43.610;25.010;2023-01-30T13:29:02;100407.72;;;2.43;65.22
61682;BME280;47577;43.610;25.010;2023-01-30T13:31:31;100401.63;;;2.39;66.07
61682;BME280;47577;43.610;25.010;2023-01-30T13:34:12;100393.75;;;2.50;66.47
61682;BME280;47577;43.610;25.010;2023-01-30T13:36:51;100393.75;;;2.39;67.00
61682;BME280;47577;43.610;25.010;2023-01-30T13:39:32;100391.13;;;2.08;66.48
61682;BME280;47577;43.610;25.010;2023-01-30T13:41:59;100397.25;;;2.15;66.84
61682;BME280;47577;43.610;25.010;2023-01-30T13:44:29;100398.97;;;2.07;66.37
61682;BME280;47577;43.610;25.010;2023-01-30T13:46:58;100380.63;;;1.90;67.55
61682;BME280;47577;43.610;25.010;2023-01-30T13:49:47;100387.59;;;1.97;65.90
61682;BME280;47577;43.610;25.010;2023-01-30T13:52:30;100393.75;;;2.19;66.69
61682;BME280;47577;43.610;25.010;2023-01-30T14:00:58;100369.22;;;2.66;66.27
61682;BME280;47577;43.610;25.010;2023-01-30T14:03:33;100359.56;;;2.82;63.77
61682;BME280;47577;43.610;25.010;2023-01-30T14:06:01;100366.63;;;2.46;64.06
61682;BME280;47577;43.610;25.010;2023-01-30T14:08:37;100354.38;;;2.33;65.31
61682;BME280;47577;43.610;25.010;2023-01-30T14:11:25;100355.25;;;2.40;65.23
61682;BME280;47577;43.610;25.010;2023-01-30T14:14:00;100352.63;;;2.41;65.14
61682;BME280;47577;43.610;25.010;2023-01-30T14:16:43;100355.25;;;2.53;65.25
61682;BME280;47577;43.610;25.010;2023-01-30T14:22:00;100360.44;;;2.69;64.15
61682;BME280;47577;43.610;25.010;2023-01-30T14:24:27;100346.44;;;2.79;63.46
61682;BME280;47577;43.610;25.010;2023-01-30T14:27:03;100358.75;;;2.46;63.71
61682;BME280;47577;43.610;25.010;2023-01-30T14:34:42;100370.13;;;2.34;64.44
61682;BME280;47577;43.610;25.010;2023-01-30T14:37:28;100383.25;;;2.27;65.10
61682;BME280;47577;43.610;25.010;2023-01-30T14:39:55;100370.16;;;2.22;66.15
61682;BME280;47577;43.610;25.010;2023-01-30T14:42:26;100377.16;;;2.14;65.27
61682;BME280;47577;43.610;25.010;2023-01-30T14:47:44;100325.53;;;1.80;65.63
61682;BME280;47577;43.610;25.010;2023-01-30T14:55:28;100374.47;;;1.77;66.89
61682;BME280;47577;43.610;25.010;2023-01-30T14:57:57;100371.88;;;1.81;66.32
61682;BME280;47577;43.610;25.010;2023-01-30T15:00:33;100349.13;;;1.79;66.84
61682;BME280;47577;43.610;25.010;2023-01-30T15:03:06;100364.00;;;1.92;66.44
61682;BME280;47577;43.610;25.010;2023-01-30T15:05:40;100358.75;;;1.81;66.79
61682;BME280;47577;43.610;25.010;2023-01-30T15:08:14;100357.84;;;1.62;67.77
61682;BME280;47577;43.610;25.010;2023-01-30T15:16:39;100349.94;;;1.47;68.38
61682;BME280;47577;43.610;25.010;2023-01-30T15:22:12;100335.06;;;1.37;68.36
61682;BME280;47577;43.610;25.010;2023-01-30T15:25:00;100341.16;;;1.34;68.47
61682;BME280;47577;43.610;25.010;2023-01-30T15:33:17;100332.41;;;1.15;68.96
61682;BME280;47577;43.610;25.010;2023-01-30T15:35:43;100327.13;;;1.07;69.48
61682;BME280;47577;43.610;25.010;2023-01-30T15:38:29;100324.44;;;0.98;69.37
61682;BME280;47577;43.610;25.010;2023-01-30T15:41:00;100320.13;;;1.06;68.81
61682;BME280;47577;43.610;25.010;2023-01-30T15:43:57;100317.44;;;0.89;69.61
61682;BME280;47577;43.610;25.010;2023-01-30T15:49:43;100320.00;;;0.77;70.23
61682;BME280;47577;43.610;25.010;2023-01-30T15:52:18;100318.25;;;0.75;70.37
61682;BME280;47577;43.610;25.010;2023-01-30T15:54:51;100320.88;;;0.79;69.88
61682;BME280;47577;43.610;25.010;2023-01-30T15:57:26;100320.88;;;0.73;70.17
61682;BME280;47577;43.610;25.010;2023-01-30T15:59:54;100311.22;;;0.69;70.35
61682;BME280;47577;43.610;25.010;2023-01-30T16:02:30;100315.63;;;0.71;70.04
61682;BME280;47577;43.610;25.010;2023-01-30T16:05:24;100312.06;;;0.57;71.43
61682;BME280;47577;43.610;25.010;2023-01-30T16:07:51;100312.06;;;0.57;70.90
61682;BME280;47577;43.610;25.010;2023-01-30T16:10:20;100310.28;;;0.54;71.18
61682;BME280;47577;43.610;25.010;2023-01-30T16:12:47;100304.22;;;0.60;70.92
61682;BME280;47577;43.610;25.010;2023-01-30T16:18:16;100313.56;;;0.24;72.45
61682;BME280;47577;43.610;25.010;2023-01-30T16:20:49;100312.75;;;0.28;72.36
61682;BME280;47577;43.610;25.010;2023-01-30T16:23:23;100304.84;;;0.21;73.63
61682;BME280;47577;43.610;25.010;2023-01-30T16:25:51;100304.97;;;0.38;72.42
61682;BME280;47577;43.610;25.010;2023-01-30T16:28:21;100319.78;;;0.40;73.04
61682;BME280;47577;43.610;25.010;2023-01-30T16:30:56;100304.16;;;0.49;71.85
61682;BME280;47577;43.610;25.010;2023-01-30T16:33:21;100307.59;;;0.39;72.36
61682;BME280;47577;43.610;25.010;2023-01-30T16:35:47;100306.59;;;0.22;72.52
61682;BME280;47577;43.610;25.010;2023-01-30T16:38:36;100304.72;;;0.04;73.61
61682;BME280;47577;43.610;25.010;2023-01-30T16:41:02;100289.13;;;0.19;74.16
61682;BME280;47577;43.610;25.010;2023-01-30T16:43:31;100298.81;;;0.29;72.71
61682;BME280;47577;43.610;25.010;2023-01-30T16:49:02;100288.16;;;0.06;73.56
61682;BME280;47577;43.610;25.010;2023-01-30T16:51:29;100288.13;;;-0.02;73.71
61682;BME280;47577;43.610;25.010;2023-01-30T16:54:01;100278.50;;;-0.07;74.51
61682;BME280;47577;43.610;25.010;2023-01-30T16:56:28;100269.88;;;0.06;73.73
61682;BME280;47577;43.610;25.010;2023-01-30T16:58:59;100267.34;;;0.17;74.01
61682;BME280;47577;43.610;25.010;2023-01-30T17:01:38;100274.28;;;0.12;73.75
61682;BME280;47577;43.610;25.010;2023-01-30T17:04:06;100272.53;;;0.11;73.55
61682;BME280;47577;43.610;25.010;2023-01-30T17:06:39;100273.44;;;0.19;74.06
61682;BME280;47577;43.610;25.010;2023-01-30T17:09:40;100263.91;;;0.27;73.48
61682;BME280;47577;43.610;25.010;2023-01-30T17:17:42;100254.94;;;-0.12;73.76
61682;BME280;47577;43.610;25.010;2023-01-30T17:20:12;100256.72;;;-0.06;74.41
61682;BME280;47577;43.610;25.010;2023-01-30T17:22:42;100260.25;;;-0.01;74.31
61682;BME280;47577;43.610;25.010;2023-01-30T17:27:53;100250.53;;;-0.21;74.61
61682;BME280;47577;43.610;25.010;2023-01-30T17:30:19;100243.59;;;-0.15;74.05
61682;BME280;47577;43.610;25.010;2023-01-30T17:32:45;100239.22;;;-0.16;75.61
61682;BME280;47577;43.610;25.010;2023-01-30T17:35:11;100231.44;;;-0.09;76.05
61682;BME280;47577;43.610;25.010;2023-01-30T17:37:38;100220.13;;;-0.08;75.32
61682;BME280;47577;43.610;25.010;2023-01-30T17:40:15;100220.16;;;0.02;74.37
61682;BME280;47577;43.610;25.010;2023-01-30T17:42:40;100220.13;;;-0.06;73.82
61682;BME280;47577;43.610;25.010;2023-01-30T17:45:06;100216.47;;;-0.30;74.86
61682;BME280;47577;43.610;25.010;2023-01-30T17:47:32;100218.28;;;-0.23;74.92
61682;BME280;47577;43.610;25.010;2023-01-30T17:49:58;100214.63;;;-0.43;74.95
61682;BME280;47577;43.610;25.010;2023-01-30T17:52:24;100212.19;;;-0.20;74.68
61682;BME280;47577;43.610;25.010;2023-01-30T17:54:49;100209.53;;;-0.26;75.43
61682;BME280;47577;43.610;25.010;2023-01-30T17:57:15;100208.66;;;-0.27;75.17
61682;BME280;47577;43.610;25.010;2023-01-30T17:59:42;100198.19;;;-0.28;75.13
61682;BME280;47577;43.610;25.010;2023-01-30T18:02:11;100196.50;;;-0.22;75.42
61682;BME280;47577;43.610;25.010;2023-01-30T18:04:37;100199.94;;;-0.29;75.37
61682;BME280;47577;43.610;25.010;2023-01-30T18:07:05;100206.00;;;-0.31;75.98
61682;BME280;47577;43.610;25.010;2023-01-30T18:09:34;100194.66;;;-0.35;75.96
61682;BME280;47577;43.610;25.010;2023-01-30T18:12:00;100188.50;;;-0.43;75.79
61682;BME280;47577;43.610;25.010;2023-01-30T18:14:26;100184.06;;;-0.55;75.86
61682;BME280;47577;43.610;25.010;2023-01-30T18:16:52;100194.34;;;-0.74;76.21
61682;BME280;47577;43.610;25.010;2023-01-30T18:19:20;100185.63;;;-0.77;76.07
61682;BME280;47577;43.610;25.010;2023-01-30T18:21:50;100181.31;;;-0.72;76.63
61682;BME280;47577;43.610;25.010;2023-01-30T18:24:15;100188.09;;;-0.89;77.30
61682;BME280;47577;43.610;25.010;2023-01-30T18:26:41;100177.69;;;-0.88;77.03
61682;BME280;47577;43.610;25.010;2023-01-30T18:29:07;100175.16;;;-0.79;76.88
61682;BME280;47577;43.610;25.010;2023-01-30T18:31:34;100187.13;;;-1.01;77.99
61682;BME280;47577;43.610;25.010;2023-01-30T19:06:26;100160.22;;;-0.95;79.06
61682;BME280;47577;43.610;25.010;2023-01-30T19:08:52;100155.16;;;-0.75;78.11
61682;BME280;47577;43.610;25.010;2023-01-30T19:11:20;100154.38;;;-0.63;77.80
61682;BME280;47577;43.610;25.010;2023-01-30T19:14:05;100153.50;;;-0.64;77.52
61682;BME280;47577;43.610;25.010;2023-01-30T19:16:33;100148.16;;;-0.84;76.51
61682;BME280;47577;43.610;25.010;2023-01-30T19:18:59;100157.00;;;-0.65;76.98
61682;BME280;47577;43.610;25.010;2023-01-30T19:21:25;100164.00;;;-0.61;76.89
61682;BME280;47577;43.610;25.010;2023-01-30T19:23:51;100160.59;;;-0.49;77.26
61682;BME280;47577;43.610;25.010;2023-01-30T19:26:18;100157.22;;;-0.37;77.27
61682;BME280;47577;43.610;25.010;2023-01-30T19:28:45;100139.78;;;-0.37;78.18
61682;BME280;47577;43.610;25.010;2023-01-30T19:31:15;100145.03;;;-0.33;77.51
61682;BME280;47577;43.610;25.010;2023-01-30T19:33:42;100141.53;;;-0.35;79.13
61682;BME280;47577;43.610;25.010;2023-01-30T19:36:16;100141.53;;;-0.35;79.25
61682;BME280;47577;43.610;25.010;2023-01-30T19:38:43;100128.47;;;-0.37;79.50
61682;BME280;47577;43.610;25.010;2023-01-30T19:41:14;100125.91;;;-0.32;79.75
61682;BME280;47577;43.610;25.010;2023-01-30T19:43:40;100116.25;;;-0.40;78.40
61682;BME280;47577;43.610;25.010;2023-01-30T19:46:06;100121.50;;;-0.37;78.77
61682;BME280;47577;43.610;25.010;2023-01-30T19:48:33;100132.03;;;-0.24;79.14
61682;BME280;47577;43.610;25.010;2023-01-30T19:51:18;100130.31;;;-0.19;79.79
61682;BME280;47577;43.610;25.010;2023-01-30T19:53:49;100121.63;;;-0.13;78.52
61682;BME280;47577;43.610;25.010;2023-01-30T19:56:16;100124.28;;;-0.07;78.74
61682;BME280;47577;43.610;25.010;2023-01-30T19:58:42;100113.84;;;-0.04;78.95
61682;BME280;47577;43.610;25.010;2023-01-30T20:01:13;100116.47;;;-0.01;77.82
61682;BME280;47577;43.610;25.010;2023-01-30T20:03:40;100119.97;;;0.04;77.38
61682;BME280;47577;43.610;25.010;2023-01-30T20:06:11;100108.63;;;0.01;77.82
61682;BME280;47577;43.610;25.010;2023-01-30T20:08:39;100108.69;;;0.10;77.21
61682;BME280;47577;43.610;25.010;2023-01-30T20:11:10;100106.97;;;0.15;77.41
61682;BME280;47577;43.610;25.010;2023-01-30T20:13:37;100103.44;;;0.14;77.63
61682;BME280;47577;43.610;25.010;2023-01-30T20:16:05;100104.22;;;-0.07;77.20
61682;BME280;47577;43.610;25.010;2023-01-30T20:18:33;100094.50;;;-0.31;78.08
61682;BME280;47577;43.610;25.010;2023-01-30T20:21:04;100097.03;;;-0.49;78.88
61682;BME280;47577;43.610;25.010;2023-01-30T20:23:31;100087.31;;;-0.72;79.30